Time;durP1;ratioP1;P1;durP2;ratioP2;P2;SDS_P1;SDS_P2;PMS_P1;PMS_P2;Temp;Humidity;BMP_temperature;BMP_pressure;BME280_temperature;BME280_humidity;BME280_pressure;Samples;Min_cycle;Max_cycle;Signal;HPM_P1;HPM_P2
2021/03/28 00:00:54;;;;;;;10.73;3.20;;;6.90;99.90;;;;;;5029328;28;20196;-62
2021/03/28 00:03:25;;;;;;;7.47;3.60;;;6.90;99.90;;;;;;5033931;28;20569;-64
2021/03/28 00:06:07;;;;;;;11.90;3.00;;;6.90;99.90;;;;;;5033275;28;20204;-64
2021/03/28 00:08:35;;;;;;;12.90;3.70;;;6.90;99.90;;;;;;5029471;28;20224;-62
2021/03/28 00:11:17;;;;;;;7.33;3.43;;;6.80;99.90;;;;;;5034881;28;20196;-64
2021/03/28 00:13:48;;;;;;;12.17;3.00;;;6.80;99.90;;;;;;5015792;28;20208;-64
2021/03/28 00:16:16;;;;;;;10.47;3.43;;;6.80;99.90;;;;;;5032071;28;20189;-63
2021/03/28 00:18:56;;;;;;;12.50;4.17;;;6.70;99.90;;;;;;5033499;28;20612;-62
2021/03/28 00:21:28;;;;;;;10.30;4.00;;;6.80;99.90;;;;;;5033672;28;20657;-63
2021/03/28 00:24:00;;;;;;;8.73;3.90;;;6.70;99.90;;;;;;5031520;28;20200;-63
2021/03/28 00:26:30;;;;;;;14.07;3.77;;;6.70;99.90;;;;;;5032736;28;20200;-66
2021/03/28 00:29:10;;;;;;;11.50;3.83;;;6.60;99.90;;;;;;5032032;28;20247;-64
2021/03/28 00:31:41;;;;;;;10.70;3.70;;;6.60;99.90;;;;;;5032962;28;20300;-64
2021/03/28 00:34:21;;;;;;;14.53;4.13;;;6.60;99.90;;;;;;5028477;28;20211;-67
2021/03/28 00:36:51;;;;;;;11.93;3.97;;;6.50;99.90;;;;;;5030517;28;20279;-62
2021/03/28 00:39:42;;;;;;;13.10;4.13;;;6.50;99.90;;;;;;5028177;28;20203;-61
2021/03/28 00:42:19;;;;;;;18.13;3.77;;;6.50;99.90;;;;;;5032933;28;20196;-62
2021/03/28 00:44:50;;;;;;;9.00;3.63;;;6.60;99.90;;;;;;5029963;28;20203;-63
2021/03/28 00:47:25;;;;;;;8.80;3.93;;;6.60;99.90;;;;;;5033562;28;20207;-64
2021/03/28 00:50:02;;;;;;;14.83;3.63;;;6.60;99.90;;;;;;5026281;28;20231;-63
2021/03/28 00:52:34;;;;;;;9.83;3.73;;;6.60;99.90;;;;;;5033332;28;20207;-64
2021/03/28 00:55:15;;;;;;;10.63;3.63;;;6.60;99.90;;;;;;5029797;28;20211;-64
2021/03/28 00:57:44;;;;;;;13.93;3.87;;;6.60;99.90;;;;;;5031801;28;20188;-62
2021/03/28 01:00:47;;;;;;;8.40;4.17;;;6.60;99.90;;;;;;5033318;28;20196;-63
2021/03/28 01:03:30;;;;;;;11.07;4.13;;;6.70;99.90;;;;;;5030147;28;20605;-65
2021/03/28 01:05:59;;;;;;;10.13;4.20;;;6.70;99.90;;;;;;5026619;28;20199;-64
2021/03/28 01:08:33;;;;;;;13.20;4.10;;;6.70;99.90;;;;;;5028818;28;20227;-64
2021/03/28 01:11:13;;;;;;;14.90;4.53;;;6.70;99.90;;;;;;5031989;28;20203;-63
2021/03/28 01:14:22;;;;;;;10.83;4.10;;;6.80;99.90;;;;;;5033295;28;20196;-64
2021/03/28 01:17:17;;;;;;;15.17;3.63;;;6.80;99.90;;;;;;5030802;28;20204;-63
2021/03/28 01:20:30;;;;;;;9.53;3.50;;;6.90;99.90;;;;;;5030986;28;20223;-66
2021/03/28 01:23:06;;;;;;;9.73;3.63;;;6.90;99.90;;;;;;5015221;28;20189;-62
2021/03/28 01:26:06;;;;;;;11.80;3.77;;;6.90;99.90;;;;;;5016113;28;20212;-61
2021/03/28 01:28:44;;;;;;;7.77;3.47;;;7.00;99.90;;;;;;5022657;28;20677;-62
2021/03/28 01:31:20;;;;;;;9.47;3.57;;;7.00;99.90;;;;;;5031033;28;20196;-63
2021/03/28 01:33:52;;;;;;;8.67;3.23;;;7.00;99.90;;;;;;5030675;28;20650;-62
2021/03/28 01:36:26;;;;;;;7.40;3.37;;;7.00;99.90;;;;;;5029631;28;20209;-65
2021/03/28 01:39:04;;;;;;;9.17;3.17;;;7.10;99.90;;;;;;5026844;28;20677;-64
2021/03/28 01:41:35;;;;;;;8.90;3.20;;;7.10;99.90;;;;;;5031796;28;20238;-65
2021/03/28 01:44:09;;;;;;;8.43;3.13;;;7.10;99.90;;;;;;5028141;28;20665;-63
2021/03/28 01:46:53;;;;;;;11.33;4.00;;;7.10;99.90;;;;;;5031430;28;20207;-62
2021/03/28 01:49:30;;;;;;;11.67;3.90;;;7.00;99.90;;;;;;5030164;28;20216;-64
2021/03/28 01:52:06;;;;;;;10.83;4.03;;;7.10;99.90;;;;;;5032419;28;20188;-65
2021/03/28 01:54:40;;;;;;;9.83;4.40;;;7.00;99.90;;;;;;5025595;28;20196;-64
2021/03/28 01:57:17;;;;;;;6.37;4.20;;;7.00;99.90;;;;;;5030095;28;20652;-65
2021/03/28 02:00:06;;;;;;;8.40;4.10;;;7.00;99.90;;;;;;5032349;28;20578;-64
2021/03/28 02:02:39;;;;;;;14.73;4.80;;;6.90;99.90;;;;;;5027119;28;20212;-65
2021/03/28 02:05:21;;;;;;;8.00;4.27;;;6.90;99.90;;;;;;5031724;28;20248;-64
2021/03/28 02:08:08;;;;;;;12.57;4.97;;;6.90;99.90;;;;;;5029874;28;20284;-63
2021/03/28 02:11:08;;;;;;;13.43;5.30;;;6.90;99.90;;;;;;5030817;28;20282;-64
2021/03/28 02:13:44;;;;;;;16.47;5.57;;;6.90;99.90;;;;;;5011070;28;20607;-62
2021/03/28 02:16:20;;;;;;;10.30;4.97;;;6.90;99.90;;;;;;5030035;28;20192;-66
2021/03/28 02:19:00;;;;;;;14.87;5.50;;;6.90;99.90;;;;;;5024850;28;20204;-66
2021/03/28 02:21:46;;;;;;;12.23;5.03;;;6.90;99.90;;;;;;5030767;28;20211;-63
2021/03/28 02:24:16;;;;;;;14.10;5.83;;;6.90;99.90;;;;;;5026592;28;20599;-63
2021/03/28 02:26:46;;;;;;;11.60;4.83;;;6.90;99.90;;;;;;5030443;28;20192;-65
2021/03/28 02:29:21;;;;;;;17.00;5.00;;;6.80;99.90;;;;;;5029242;28;20223;-64
2021/03/28 02:32:02;;;;;;;12.67;4.83;;;6.80;99.90;;;;;;5031242;28;20199;-65
2021/03/28 02:34:34;;;;;;;7.97;4.23;;;6.80;99.90;;;;;;5019931;28;21052;-64
2021/03/28 02:37:07;;;;;;;11.60;4.83;;;6.80;99.90;;;;;;5027702;28;20200;-64
2021/03/28 02:39:45;;;;;;;12.33;4.93;;;6.80;99.90;;;;;;5029490;28;20201;-62
2021/03/28 02:42:27;;;;;;;13.00;4.83;;;6.90;99.90;;;;;;5029510;28;20208;-66
2021/03/28 02:45:01;;;;;;;12.13;4.83;;;6.90;99.90;;;;;;5028091;28;20204;-64
2021/03/28 02:47:49;;;;;;;12.27;5.00;;;6.90;99.90;;;;;;5029357;28;20227;-66
2021/03/28 02:50:44;;;;;;;10.83;4.47;;;7.00;99.90;;;;;;5014628;28;20231;-66
2021/03/28 02:53:20;;;;;;;12.93;4.63;;;7.00;99.90;;;;;;5030532;28;20199;-63
2021/03/28 02:56:10;;;;;;;12.50;5.20;;;7.00;99.90;;;;;;5031935;28;20183;-64
2021/03/28 02:58:58;;;;;;;9.63;4.60;;;7.00;99.90;;;;;;5021300;28;20295;-63
2021/03/28 03:01:50;;;;;;;10.93;4.37;;;7.10;99.90;;;;;;5029082;28;20197;-64
2021/03/28 03:04:41;;;;;;;11.23;4.43;;;7.10;99.90;;;;;;5012178;28;20236;-63
2021/03/28 03:07:33;;;;;;;16.93;5.30;;;7.10;99.90;;;;;;5024324;28;20231;-65
2021/03/28 03:10:28;;;;;;;9.87;4.43;;;7.20;99.90;;;;;;5028940;28;20274;-64
2021/03/28 03:13:05;;;;;;;12.30;4.30;;;7.20;99.90;;;;;;5013581;28;20661;-63
2021/03/28 03:15:37;;;;;;;9.73;4.87;;;7.10;99.90;;;;;;5030001;28;20192;-65
2021/03/28 03:18:43;;;;;;;8.50;4.23;;;7.10;99.90;;;;;;5022007;28;20203;-65
2021/03/28 03:21:39;;;;;;;10.07;4.60;;;7.20;99.90;;;;;;5024375;28;20214;-64
2021/03/28 03:24:59;;;;;;;11.17;4.97;;;7.20;99.90;;;;;;5012621;28;20204;-66
2021/03/28 03:27:55;;;;;;;12.10;4.57;;;7.20;99.90;;;;;;4955240;28;20246;-65
2021/03/28 03:30:43;;;;;;;11.47;5.10;;;7.20;99.90;;;;;;5022302;28;20212;-65
2021/03/28 03:33:40;;;;;;;12.77;5.23;;;7.30;99.90;;;;;;5025336;28;20664;-66
2021/03/28 03:36:26;;;;;;;14.27;5.17;;;7.30;99.90;;;;;;4993235;28;20204;-66
2021/03/28 03:39:27;;;;;;;12.03;4.60;;;7.30;99.90;;;;;;5021808;28;20711;-67
2021/03/28 03:42:17;;;;;;;11.60;4.83;;;7.40;99.90;;;;;;5021971;28;20219;-65
2021/03/28 03:45:19;;;;;;;9.77;4.87;;;7.40;99.90;;;;;;5030082;28;20653;-65
2021/03/28 03:47:56;;;;;;;9.23;4.50;;;7.40;99.90;;;;;;5024922;28;20211;-65
2021/03/28 03:50:42;;;;;;;13.93;5.13;;;7.40;99.90;;;;;;5027838;28;20223;-63
2021/03/28 03:53:22;;;;;;;16.57;5.03;;;7.40;99.90;;;;;;5032491;28;20571;-66
2021/03/28 03:55:59;;;;;;;8.23;4.13;;;7.40;99.90;;;;;;5029528;28;20665;-64
2021/03/28 03:58:30;;;;;;;8.23;4.40;;;7.40;99.90;;;;;;5027112;28;20211;-64
2021/03/28 04:01:09;;;;;;;11.57;4.80;;;7.40;99.90;;;;;;5032610;28;20188;-66
2021/03/28 04:03:48;;;;;;;10.97;4.33;;;7.50;99.90;;;;;;5025589;28;20231;-65
2021/03/28 04:06:55;;;;;;;12.87;5.83;;;7.50;99.90;;;;;;5033182;28;20602;-63
2021/03/28 04:09:31;;;;;;;16.80;5.07;;;7.40;99.90;;;;;;4938682;28;20231;-61
2021/03/28 04:12:14;;;;;;;9.67;4.20;;;7.40;99.90;;;;;;4950105;28;20199;-63
2021/03/28 04:15:09;;;;;;;10.73;4.30;;;7.40;99.90;;;;;;5001849;28;20650;-65
2021/03/28 04:18:03;;;;;;;11.37;4.60;;;7.50;99.90;;;;;;5027850;28;20250;-65
2021/03/28 04:20:37;;;;;;;8.57;4.23;;;7.40;99.90;;;;;;4990659;28;20278;-64
2021/03/28 04:23:44;;;;;;;11.60;4.90;;;7.50;99.90;;;;;;5023761;28;20203;-65
2021/03/28 04:26:24;;;;;;;9.73;5.03;;;7.50;99.90;;;;;;5021728;28;20192;-63
2021/03/28 04:28:53;;;;;;;9.60;4.93;;;7.50;99.90;;;;;;5022614;28;20208;-65
2021/03/28 04:31:56;;;;;;;10.17;4.67;;;7.50;99.90;;;;;;5021959;28;20242;-64
2021/03/28 04:34:27;;;;;;;6.37;4.17;;;7.50;99.90;;;;;;5028846;28;20192;-62
2021/03/28 04:37:12;;;;;;;8.80;4.57;;;7.50;99.90;;;;;;5021517;28;20201;-63
2021/03/28 04:40:12;;;;;;;8.00;4.67;;;7.50;99.90;;;;;;5021839;28;20207;-64
2021/03/28 04:43:06;;;;;;;8.73;4.23;;;7.50;99.90;;;;;;5021121;28;20197;-62
2021/03/28 04:46:01;;;;;;;7.30;4.17;;;7.50;99.90;;;;;;5023907;28;20309;-64
2021/03/28 04:48:49;;;;;;;11.60;4.47;;;7.60;99.90;;;;;;5022127;28;20197;-63
2021/03/28 04:51:57;;;;;;;7.10;4.23;;;7.60;99.90;;;;;;5022858;28;20235;-64
2021/03/28 04:54:44;;;;;;;11.40;4.50;;;7.60;99.90;;;;;;4997229;28;20596;-64
2021/03/28 04:57:23;;;;;;;6.73;4.30;;;7.60;99.90;;;;;;5022489;28;20201;-66
2021/03/28 05:00:20;;;;;;;5.80;4.50;;;7.60;99.90;;;;;;5022686;28;20283;-66
2021/03/28 05:03:28;;;;;;;6.70;4.33;;;7.50;99.90;;;;;;5018630;28;20204;-67
2021/03/28 05:06:09;;;;;;;8.37;4.50;;;7.50;99.90;;;;;;5022615;28;20196;-62
2021/03/28 05:08:57;;;;;;;11.23;5.00;;;7.40;99.90;;;;;;5026266;28;20569;-66
2021/03/28 05:11:57;;;;;;;8.27;4.23;;;7.40;99.90;;;;;;5000527;28;20238;-64
2021/03/28 05:15:08;;;;;;;9.50;4.13;;;7.20;99.90;;;;;;5030494;28;20197;-62
2021/03/28 05:18:28;;;;;;;9.63;4.47;;;7.10;99.90;;;;;;5028875;28;20967;-62
2021/03/28 05:21:30;;;;;;;8.77;4.37;;;7.00;99.90;;;;;;5031099;28;20204;-62
2021/03/28 05:24:32;;;;;;;11.77;4.87;;;6.90;99.90;;;;;;5028213;28;20200;-64
2021/03/28 05:27:27;;;;;;;6.90;3.90;;;6.80;99.90;;;;;;5023919;28;20204;-63
2021/03/28 05:30:15;;;;;;;9.07;5.20;;;6.80;99.90;;;;;;5031599;28;20220;-63
2021/03/28 05:33:27;;;;;;;9.40;4.67;;;6.80;99.90;;;;;;5024170;28;20192;-63
2021/03/28 05:36:38;;;;;;;7.93;4.77;;;6.80;99.90;;;;;;5031991;28;20262;-63
2021/03/28 05:39:34;;;;;;;10.57;4.77;;;6.80;99.90;;;;;;5026726;28;20211;-63
2021/03/28 05:42:34;;;;;;;9.10;4.40;;;6.90;99.90;;;;;;5025992;28;20207;-63
2021/03/28 05:45:21;;;;;;;11.30;5.17;;;6.90;99.90;;;;;;5023478;28;20254;-63
2021/03/28 05:48:25;;;;;;;10.67;5.40;;;6.90;99.90;;;;;;5031184;28;20649;-63
2021/03/28 05:51:08;;;;;;;10.73;4.90;;;7.00;99.90;;;;;;5029112;28;20211;-64
2021/03/28 05:54:05;;;;;;;11.67;5.10;;;7.00;99.90;;;;;;5023423;28;20200;-64
2021/03/28 05:57:22;;;;;;;9.33;5.10;;;7.00;99.90;;;;;;5031790;28;20191;-63
2021/03/28 06:00:15;;;;;;;8.50;4.77;;;7.10;99.90;;;;;;5022050;28;20201;-63
2021/03/28 06:03:08;;;;;;;7.53;4.67;;;7.10;99.90;;;;;;5027285;28;20196;-62
2021/03/28 06:06:09;;;;;;;13.17;4.67;;;7.20;99.90;;;;;;5032479;28;20200;-63
2021/03/28 06:09:17;;;;;;;6.13;4.87;;;7.20;99.90;;;;;;5030303;28;20200;-62
2021/03/28 06:12:23;;;;;;;13.17;5.10;;;7.20;99.90;;;;;;4990569;28;20204;-65
2021/03/28 06:15:15;;;;;;;11.00;5.07;;;7.30;99.90;;;;;;5022309;28;20196;-65
2021/03/28 06:18:29;;;;;;;10.70;5.00;;;7.40;99.90;;;;;;5031378;28;20548;-63
2021/03/28 06:21:24;;;;;;;8.77;4.27;;;7.60;99.90;;;;;;4959160;28;20203;-63
2021/03/28 06:24:26;;;;;;;9.47;5.07;;;8.00;99.90;;;;;;4965871;28;20263;-63
2021/03/28 06:27:43;;;;;;;6.93;4.57;;;8.50;99.90;;;;;;5025072;28;20200;-61
2021/03/28 06:30:46;;;;;;;9.53;4.60;;;8.90;99.90;;;;;;5031616;28;20231;-64
2021/03/28 06:33:38;;;;;;;8.47;4.27;;;9.20;99.90;;;;;;5003216;28;20196;-61
2021/03/28 06:36:43;;;;;;;10.00;4.10;;;9.60;99.90;;;;;;5030006;28;20208;-65
2021/03/28 06:39:47;;;;;;;10.47;4.20;;;10.00;99.90;;;;;;5028510;28;20484;-63
2021/03/28 06:42:50;;;;;;;7.53;4.00;;;10.20;99.90;;;;;;5025851;28;20657;-64
2021/03/28 06:45:56;;;;;;;10.00;4.10;;;10.80;99.90;;;;;;5004388;28;20211;-63
2021/03/28 06:49:02;;;;;;;7.10;3.83;;;11.10;99.90;;;;;;5014165;28;20562;-62
2021/03/28 06:51:51;;;;;;;11.07;3.90;;;11.20;99.90;;;;;;5017892;28;20200;-61
2021/03/28 06:55:07;;;;;;;8.10;3.47;;;11.50;99.90;;;;;;5029859;28;20200;-62
2021/03/28 06:58:05;;;;;;;11.10;3.60;;;11.70;99.90;;;;;;5029054;28;20208;-63
2021/03/28 07:01:01;;;;;;;7.17;3.50;;;11.90;99.90;;;;;;5012543;28;20651;-61
2021/03/28 07:03:46;;;;;;;7.17;3.33;;;12.10;99.90;;;;;;5022059;28;20724;-64
2021/03/28 07:06:23;;;;;;;10.53;3.73;;;12.40;99.90;;;;;;5032107;28;20196;-61
2021/03/28 07:09:26;;;;;;;8.63;3.90;;;12.80;99.90;;;;;;5027507;28;20200;-61
2021/03/28 07:11:58;;;;;;;8.90;3.80;;;13.10;99.90;;;;;;5023203;28;20211;-64
2021/03/28 07:15:01;;;;;;;8.30;3.73;;;13.10;99.90;;;;;;5027307;28;20200;-62
2021/03/28 07:18:01;;;;;;;8.93;3.63;;;12.60;99.90;;;;;;5018559;28;20203;-64
2021/03/28 07:20:47;;;;;;;9.60;3.87;;;11.70;99.90;;;;;;5022025;28;20196;-62
2021/03/28 07:23:59;;;;;;;7.97;3.80;;;11.20;99.90;;;;;;5024559;28;20642;-62
2021/03/28 07:27:09;;;;;;;7.07;3.77;;;10.90;99.90;;;;;;4994444;28;20208;-62
2021/03/28 07:30:05;;;;;;;7.53;3.47;;;10.60;99.90;;;;;;5030026;28;20723;-62
2021/03/28 07:33:14;;;;;;;8.03;3.43;;;10.50;99.90;;;;;;5038569;28;20556;-64
2021/03/28 07:36:06;;;;;;;7.30;3.00;;;10.50;99.90;;;;;;5016517;28;20197;-63
2021/03/28 07:39:16;;;;;;;8.07;3.50;;;10.50;99.90;;;;;;5021183;28;20914;-65
2021/03/28 07:42:21;;;;;;;11.23;4.00;;;10.40;99.90;;;;;;5018773;28;20201;-65
2021/03/28 07:45:28;;;;;;;7.30;3.40;;;10.40;99.90;;;;;;5008785;28;20208;-63
2021/03/28 07:48:52;;;;;;;9.47;3.57;;;10.30;99.90;;;;;;5026955;28;20200;-65
2021/03/28 07:51:51;;;;;;;12.53;3.60;;;10.30;99.90;;;;;;5026774;28;20204;-63
2021/03/28 07:54:44;;;;;;;9.03;3.90;;;10.40;99.90;;;;;;4997638;28;20204;-65
2021/03/28 07:57:43;;;;;;;8.80;3.10;;;10.60;99.90;;;;;;5021986;28;20204;-63
2021/03/28 08:00:37;;;;;;;9.63;3.90;;;10.70;99.90;;;;;;5025753;28;20208;-65
2021/03/28 08:03:22;;;;;;;6.33;3.20;;;10.70;99.90;;;;;;5029061;28;20219;-63
2021/03/28 08:06:21;;;;;;;10.40;3.10;;;10.90;99.90;;;;;;5027842;28;20603;-65
2021/03/28 08:09:21;;;;;;;7.77;3.37;;;11.50;99.90;;;;;;5025259;28;20200;-65
2021/03/28 08:12:09;;;;;;;9.47;3.33;;;12.20;99.90;;;;;;5029952;28;20211;-63
2021/03/28 08:15:10;;;;;;;9.27;2.77;;;12.40;99.90;;;;;;5019675;28;20204;-64
2021/03/28 08:17:48;;;;;;;8.33;3.40;;;12.50;99.90;;;;;;5031783;28;20254;-66
2021/03/28 08:21:11;;;;;;;7.57;3.07;;;12.90;99.90;;;;;;5030227;28;20207;-63
2021/03/28 08:24:11;;;;;;;9.20;2.60;;;13.60;99.90;;;;;;4949907;28;20207;-63
2021/03/28 08:27:04;;;;;;;8.67;2.60;;;13.80;99.90;;;;;;5031204;28;20200;-64
2021/03/28 08:29:46;;;;;;;7.10;2.93;;;13.90;99.90;;;;;;5030324;28;20250;-63
2021/03/28 08:32:36;;;;;;;7.20;3.10;;;13.90;99.90;;;;;;5028071;28;20204;-63
2021/03/28 08:35:27;;;;;;;5.87;2.57;;;13.60;99.90;;;;;;5028996;28;20199;-64
2021/03/28 08:38:30;;;;;;;9.63;2.80;;;13.10;99.90;;;;;;5030451;28;20188;-63
2021/03/28 08:41:34;;;;;;;7.47;2.60;;;13.20;99.90;;;;;;5029386;28;20211;-66
2021/03/28 08:44:26;;;;;;;6.73;3.07;;;13.60;99.90;;;;;;5030552;28;20234;-63
2021/03/28 08:47:24;;;;;;;7.80;3.17;;;13.80;99.90;;;;;;4997504;28;20203;-63
2021/03/28 08:49:58;;;;;;;4.93;2.77;;;14.50;99.90;;;;;;5029819;28;20227;-63
2021/03/28 08:52:43;;;;;;;6.00;2.47;;;14.40;99.90;;;;;;5032392;28;20208;-63
2021/03/28 08:55:24;;;;;;;8.63;3.47;;;14.10;99.90;;;;;;5030376;28;20200;-62
2021/03/28 08:58:01;;;;;;;6.77;2.63;;;14.10;99.90;;;;;;5027029;28;21804;-66
2021/03/28 09:03:38;;;;;;;6.67;3.10;;;14.50;99.90;;;;;;4981906;28;20207;-62
2021/03/28 09:06:09;;;;;;;6.90;2.43;;;14.90;99.90;;;;;;5011504;28;20215;-63
2021/03/28 09:08:45;;;;;;;11.77;2.80;;;14.80;99.90;;;;;;5027329;28;20230;-67
2021/03/28 09:11:49;;;;;;;11.40;3.30;;;14.60;99.90;;;;;;5034934;28;20246;-64
2021/03/28 09:14:42;;;;;;;6.77;2.97;;;14.10;99.90;;;;;;5036632;28;20717;-64
2021/03/28 09:17:17;;;;;;;4.10;2.43;;;13.80;99.90;;;;;;5025866;28;20673;-65
2021/03/28 09:20:24;;;;;;;8.00;2.50;;;13.60;99.90;;;;;;5037419;28;20207;-63
2021/03/28 09:22:57;;;;;;;7.57;3.17;;;13.60;99.90;;;;;;5038260;28;20202;-62
2021/03/28 09:25:31;;;;;;;7.03;2.47;;;13.80;99.90;;;;;;5034026;28;20207;-65
2021/03/28 09:28:08;;;;;;;7.80;2.70;;;13.90;99.90;;;;;;5036469;28;20200;-65
2021/03/28 09:30:38;;;;;;;7.57;2.60;;;13.70;99.90;;;;;;5037919;28;20227;-65
2021/03/28 09:33:15;;;;;;;5.87;2.40;;;13.50;99.90;;;;;;5038347;28;20200;-64
2021/03/28 09:36:13;;;;;;;5.97;2.23;;;13.10;99.90;;;;;;5028846;28;20208;-64
2021/03/28 09:39:12;;;;;;;10.80;2.87;;;12.90;99.90;;;;;;5032101;28;20223;-64
2021/03/28 09:42:18;;;;;;;5.63;2.43;;;12.70;99.90;;;;;;5033137;28;20266;-67
2021/03/28 09:45:31;;;;;;;9.57;2.40;;;12.70;99.90;;;;;;4968239;28;20218;-66
2021/03/28 09:48:24;;;;;;;7.23;2.40;;;12.60;99.90;;;;;;5028963;28;20299;-66
2021/03/28 09:51:18;;;;;;;7.13;2.40;;;12.70;99.90;;;;;;5026012;28;20235;-63
2021/03/28 09:54:07;;;;;;;9.30;2.83;;;12.70;99.90;;;;;;5031910;28;20204;-64
2021/03/28 09:57:04;;;;;;;6.13;2.40;;;12.70;99.90;;;;;;5030554;28;20200;-68
2021/03/28 09:59:59;;;;;;;6.20;2.17;;;12.60;99.90;;;;;;5025817;28;20692;-67
2021/03/28 10:02:40;;;;;;;6.53;2.50;;;12.60;99.90;;;;;;5033627;28;20216;-67
2021/03/28 10:05:26;;;;;;;8.23;2.63;;;12.80;99.90;;;;;;5033252;28;20283;-67
2021/03/28 10:07:59;;;;;;;4.90;2.20;;;13.00;99.90;;;;;;5029102;28;20225;-67
2021/03/28 10:10:39;;;;;;;7.87;2.63;;;13.10;99.90;;;;;;5030266;28;20224;-65
2021/03/28 10:13:31;;;;;;;8.37;2.60;;;13.10;99.90;;;;;;5033400;28;20212;-67
2021/03/28 10:16:05;;;;;;;7.67;2.30;;;13.00;99.90;;;;;;5033230;28;20208;-68
2021/03/28 10:19:10;;;;;;;7.77;2.40;;;13.10;99.90;;;;;;5034469;28;20286;-65
2021/03/28 10:22:21;;;;;;;10.00;2.83;;;13.20;99.90;;;;;;5032780;28;20210;-66
2021/03/28 10:25:18;;;;;;;8.43;3.13;;;13.60;99.90;;;;;;5021479;28;20214;-65
2021/03/28 10:28:21;;;;;;;8.33;2.37;;;13.90;99.90;;;;;;5034608;28;20257;-66
2021/03/28 10:30:54;;;;;;;9.70;2.40;;;14.10;99.90;;;;;;5030765;28;20432;-64
2021/03/28 10:33:38;;;;;;;6.83;2.63;;;14.20;99.90;;;;;;5033279;28;20211;-66
2021/03/28 10:36:21;;;;;;;5.97;2.50;;;14.10;99.90;;;;;;5031930;28;20220;-64
2021/03/28 10:39:19;;;;;;;7.37;2.50;;;13.90;99.90;;;;;;5020288;28;20209;-67
2021/03/28 10:42:14;;;;;;;9.80;2.67;;;13.80;99.90;;;;;;5015248;28;20293;-65
2021/03/28 10:45:04;;;;;;;8.47;3.10;;;13.70;99.90;;;;;;5031129;28;20202;-66
2021/03/28 10:48:13;;;;;;;7.93;2.90;;;13.70;99.90;;;;;;5018643;28;20205;-65
2021/03/28 10:51:24;;;;;;;7.80;2.40;;;13.90;99.90;;;;;;5024446;28;20223;-66
2021/03/28 10:54:15;;;;;;;6.90;2.37;;;14.40;99.90;;;;;;5027681;28;20199;-65
2021/03/28 10:57:18;;;;;;;8.20;2.43;;;14.70;99.90;;;;;;5032201;28;20215;-65
2021/03/28 11:00:20;;;;;;;6.30;2.37;;;14.60;99.90;;;;;;5029726;28;20214;-66
2021/03/28 11:03:24;;;;;;;8.47;2.63;;;14.40;99.90;;;;;;5032925;28;20218;-66
2021/03/28 11:06:25;;;;;;;7.10;3.10;;;14.30;99.90;;;;;;5029074;28;20199;-67
2021/03/28 11:09:33;;;;;;;6.23;2.53;;;14.10;99.90;;;;;;5028303;28;20215;-67
2021/03/28 11:12:35;;;;;;;8.30;2.90;;;13.80;99.90;;;;;;5027972;28;20207;-66
2021/03/28 11:15:33;;;;;;;9.77;2.67;;;13.90;99.90;;;;;;5031030;28;20257;-66
2021/03/28 11:18:31;;;;;;;10.97;2.73;;;14.20;99.90;;;;;;5031465;28;20731;-66
2021/03/28 11:21:05;;;;;;;5.03;2.37;;;14.30;99.90;;;;;;5030719;28;20203;-66
2021/03/28 11:23:59;;;;;;;11.10;2.83;;;14.20;99.90;;;;;;5029967;28;20648;-64
2021/03/28 11:27:07;;;;;;;5.53;2.40;;;14.10;99.90;;;;;;5032155;28;20930;-64
2021/03/28 11:30:11;;;;;;;6.33;2.30;;;13.90;99.90;;;;;;4991106;28;20561;-66
2021/03/28 11:33:02;;;;;;;6.00;2.40;;;14.00;99.90;;;;;;5026015;28;20755;-66
2021/03/28 11:35:33;;;;;;;8.13;3.00;;;14.20;99.90;;;;;;5032209;28;20204;-65
2021/03/28 11:38:39;;;;;;;5.23;2.30;;;14.30;99.90;;;;;;5029003;28;20215;-66
2021/03/28 11:41:33;;;;;;;7.10;2.40;;;14.40;99.90;;;;;;5029911;28;20580;-66
2021/03/28 11:44:12;;;;;;;5.33;2.47;;;14.50;99.90;;;;;;5029523;28;20287;-64
2021/03/28 11:46:50;;;;;;;8.37;2.10;;;14.50;99.90;;;;;;5038693;28;20196;-66
2021/03/28 11:49:21;;;;;;;7.43;2.60;;;14.50;99.90;;;;;;5033321;28;20215;-65
2021/03/28 11:52:14;;;;;;;13.27;2.90;;;14.50;99.90;;;;;;5035392;28;20203;-65
2021/03/28 11:54:57;;;;;;;7.07;3.00;;;14.50;99.90;;;;;;5033774;28;20274;-63
2021/03/28 11:57:30;;;;;;;10.53;2.37;;;14.40;99.90;;;;;;5031276;28;20646;-66
2021/03/28 12:00:11;;;;;;;7.87;2.10;;;14.60;99.90;;;;;;5025140;28;20619;-66
2021/03/28 12:02:38;;;;;;;6.30;2.13;;;14.70;99.90;;;;;;5033541;28;20204;-66
2021/03/28 12:05:48;;;;;;;7.20;2.23;;;14.80;99.90;;;;;;5036540;28;20232;-66
2021/03/28 12:08:16;;;;;;;6.57;1.97;;;15.10;99.90;;;;;;4958999;28;20211;-65
2021/03/28 12:10:45;;;;;;;5.80;2.10;;;15.50;99.90;;;;;;5019734;28;20286;-65
2021/03/28 12:13:31;;;;;;;6.83;2.00;;;15.70;99.90;;;;;;5035790;28;20211;-66
2021/03/28 12:16:07;;;;;;;8.57;2.13;;;15.80;99.90;;;;;;5033522;28;20596;-64
2021/03/28 12:18:50;;;;;;;8.53;2.10;;;15.70;99.90;;;;;;5031675;28;20292;-66
2021/03/28 12:21:33;;;;;;;7.33;2.63;;;15.70;99.90;;;;;;5032847;28;20200;-66
2021/03/28 12:24:03;;;;;;;5.67;2.30;;;15.80;99.90;;;;;;5029233;28;20192;-65
2021/03/28 12:26:47;;;;;;;8.13;2.10;;;15.70;99.90;;;;;;5035872;28;20209;-64
2021/03/28 12:29:36;;;;;;;5.43;2.13;;;15.70;99.90;;;;;;5035500;28;20636;-67
2021/03/28 12:32:50;;;;;;;7.13;2.20;;;15.50;99.90;;;;;;5034804;28;20228;-67
2021/03/28 12:35:46;;;;;;;4.50;1.80;;;15.70;99.90;;;;;;5028704;28;20204;-65
2021/03/28 12:38:33;;;;;;;5.33;2.17;;;15.40;99.90;;;;;;5019578;28;20200;-65
2021/03/28 12:41:18;;;;;;;9.57;2.47;;;15.00;99.90;;;;;;5033715;28;20250;-64
2021/03/28 12:43:49;;;;;;;6.53;2.50;;;14.60;99.90;;;;;;5034661;28;20198;-63
2021/03/28 12:46:41;;;;;;;7.77;2.77;;;14.30;99.90;;;;;;5030584;28;20280;-66
2021/03/28 12:49:17;;;;;;;6.37;2.33;;;14.00;99.90;;;;;;5031606;28;20678;-66
2021/03/28 12:51:45;;;;;;;8.17;2.70;;;14.00;99.90;;;;;;5033310;28;20204;-65
2021/03/28 12:54:25;;;;;;;7.10;2.33;;;13.90;99.90;;;;;;5032838;28;20201;-65
2021/03/28 12:56:55;;;;;;;6.77;2.10;;;13.70;99.90;;;;;;5050455;28;20194;-65
2021/03/28 12:59:35;;;;;;;8.87;2.30;;;13.70;99.90;;;;;;5032152;28;20203;-65
2021/03/28 13:02:13;;;;;;;8.43;2.13;;;13.60;99.90;;;;;;5037876;28;20283;-65
2021/03/28 13:04:48;;;;;;;7.17;2.67;;;13.70;99.90;;;;;;5032658;28;20285;-65
2021/03/28 13:07:33;;;;;;;8.00;2.57;;;13.80;99.90;;;;;;5032996;28;20262;-66
2021/03/28 13:10:00;;;;;;;7.40;2.27;;;13.90;99.90;;;;;;5030635;28;20223;-65
2021/03/28 13:12:28;;;;;;;8.73;2.37;;;14.30;99.90;;;;;;5034037;28;20200;-64
2021/03/28 13:15:22;;;;;;;5.43;2.20;;;14.70;99.90;;;;;;5029431;28;20683;-64
2021/03/28 13:18:03;;;;;;;10.50;2.47;;;14.60;99.90;;;;;;5035129;28;20204;-64
2021/03/28 13:20:38;;;;;;;9.33;2.33;;;14.50;99.90;;;;;;5036407;28;20195;-63
2021/03/28 13:23:26;;;;;;;15.20;3.20;;;14.50;99.90;;;;;;5026570;28;20208;-64
2021/03/28 13:26:09;;;;;;;8.47;2.33;;;14.70;99.90;;;;;;5020261;28;20205;-65
2021/03/28 13:28:36;;;;;;;6.87;2.27;;;15.50;99.90;;;;;;5030056;28;20268;-65
2021/03/28 13:31:37;;;;;;;6.77;2.03;;;16.20;99.90;;;;;;5035404;28;20227;-65
2021/03/28 13:34:19;;;;;;;9.93;2.47;;;16.90;99.90;;;;;;5025385;28;20199;-65
2021/03/28 13:37:00;;;;;;;6.10;2.17;;;17.30;99.90;;;;;;5038038;28;20204;-64
2021/03/28 13:39:28;;;;;;;7.17;2.30;;;17.30;99.90;;;;;;5031202;28;20653;-63
2021/03/28 13:42:06;;;;;;;6.67;2.30;;;16.50;99.90;;;;;;5031955;28;20211;-63
2021/03/28 13:44:49;;;;;;;4.77;1.77;;;15.70;99.90;;;;;;5029044;28;20258;-64
2021/03/28 13:47:17;;;;;;;5.73;2.40;;;15.00;99.90;;;;;;5031846;28;20242;-64
2021/03/28 13:49:47;;;;;;;8.53;2.47;;;14.70;99.90;;;;;;5030787;28;20231;-64
2021/03/28 13:52:18;;;;;;;9.77;2.30;;;14.50;99.90;;;;;;5031493;28;20616;-65
2021/03/28 13:54:47;;;;;;;4.90;2.13;;;14.40;99.90;;;;;;5029109;28;20200;-63
2021/03/28 13:57:24;;;;;;;8.17;2.60;;;14.30;99.90;;;;;;5033138;28;20251;-64
2021/03/28 14:00:29;;;;;;;7.27;2.47;;;14.10;99.90;;;;;;5032420;28;20192;-63
2021/03/28 14:02:58;;;;;;;10.23;2.90;;;14.10;99.90;;;;;;5024109;28;20656;-64
2021/03/28 14:05:31;;;;;;;11.03;2.40;;;14.10;99.90;;;;;;5032910;28;20230;-70
2021/03/28 14:08:01;;;;;;;6.87;2.33;;;14.00;99.90;;;;;;5035262;28;20568;-65
2021/03/28 14:10:48;;;;;;;6.07;2.17;;;14.00;99.90;;;;;;5035536;28;20232;-65
2021/03/28 14:13:18;;;;;;;6.93;2.13;;;14.20;99.90;;;;;;5038821;28;20627;-65
2021/03/28 14:15:47;;;;;;;9.07;2.80;;;14.40;99.90;;;;;;5021759;28;20204;-64
2021/03/28 14:18:30;;;;;;;8.63;2.30;;;14.30;99.90;;;;;;5026256;28;20712;-64
2021/03/28 14:21:12;;;;;;;5.87;2.20;;;14.20;99.90;;;;;;5025751;28;20215;-66
2021/03/28 14:23:46;;;;;;;8.70;2.30;;;14.00;99.90;;;;;;5022997;28;20661;-63
2021/03/28 14:26:29;;;;;;;10.10;2.50;;;14.00;99.90;;;;;;5027095;28;20192;-63
2021/03/28 14:28:56;;;;;;;7.53;2.67;;;13.90;99.90;;;;;;5026090;28;20556;-65
2021/03/28 14:31:35;;;;;;;6.13;2.33;;;13.80;99.90;;;;;;5027711;28;20236;-63
2021/03/28 14:34:37;;;;;;;5.03;1.97;;;13.70;99.90;;;;;;5023576;28;20284;-65
2021/03/28 14:37:37;;;;;;;9.60;2.60;;;13.90;99.90;;;;;;5022861;28;20215;-63